createdAt,value
2024-05-09T00:02:42.916Z,40.35
2024-05-09T00:05:12.835Z,40.00
2024-05-09T00:07:42.160Z,38.95
2024-05-09T00:10:18.296Z,55.08
2024-05-09T00:12:54.608Z,46.47
2024-05-09T00:15:23.844Z,43.15
2024-05-09T00:17:55.819Z,39.38
2024-05-09T00:20:33.563Z,42.65
2024-05-09T00:23:08.639Z,46.40
2024-05-09T00:25:38.162Z,43.72
2024-05-09T00:28:07.701Z,47.53
2024-05-09T00:30:37.572Z,48.75
2024-05-09T00:33:11.189Z,50.00
2024-05-09T00:35:41.359Z,52.00
2024-05-09T00:38:10.702Z,47.60
2024-05-09T00:40:42.980Z,43.80
2024-05-09T00:43:14.443Z,46.97
2024-05-09T00:45:44.848Z,47.90
2024-05-09T00:48:19.789Z,44.45
2024-05-09T00:50:50.679Z,50.08
2024-05-09T00:53:21.195Z,53.05
2024-05-09T00:55:50.701Z,47.95
2024-05-09T00:58:23.268Z,48.47
2024-05-09T01:00:52.838Z,44.17
2024-05-09T01:03:24.920Z,48.75
2024-05-09T01:05:54.553Z,43.58
2024-05-09T01:08:23.869Z,56.55
2024-05-09T01:10:53.266Z,45.35
2024-05-09T01:13:22.591Z,41.60
2024-05-09T01:15:53.863Z,50.80
2024-05-09T01:18:25.911Z,53.42
2024-05-09T01:20:55.186Z,50.03
2024-05-09T01:23:26.983Z,44.50
2024-05-09T01:25:56.303Z,48.15
2024-05-09T01:28:27.815Z,49.83
2024-05-09T01:30:57.043Z,45.70
2024-05-09T01:33:26.581Z,54.67
2024-05-09T01:35:56.007Z,51.00
2024-05-09T01:38:27.864Z,47.25
2024-05-09T01:40:57.140Z,50.50
2024-05-09T01:43:26.361Z,43.22
2024-05-09T01:45:55.536Z,51.50
2024-05-09T01:48:24.933Z,53.88
2024-05-09T01:50:54.331Z,48.83
2024-05-09T01:53:23.571Z,51.65
2024-05-09T01:55:55.479Z,53.47
2024-05-09T01:58:24.702Z,45.40
2024-05-09T02:00:53.919Z,42.63
2024-05-09T02:03:23.524Z,49.97
2024-05-09T02:05:52.923Z,46.20
2024-05-09T02:08:24.984Z,57.50
2024-05-09T02:10:56.888Z,49.13
2024-05-09T02:13:26.128Z,54.65
2024-05-09T02:15:55.377Z,46.90
2024-05-09T02:18:24.637Z,47.05
2024-05-09T02:20:53.929Z,49.15
2024-05-09T02:23:23.169Z,50.95
2024-05-09T02:25:52.521Z,52.47
2024-05-09T02:28:25.539Z,55.60
2024-05-09T02:30:54.716Z,52.67
2024-05-09T02:33:24.118Z,51.40
2024-05-09T02:35:53.427Z,44.47
2024-05-09T02:38:20.160Z,45.13
2024-05-09T02:40:49.766Z,44.42
2024-05-09T02:43:16.340Z,49.83
2024-05-09T02:45:48.098Z,50.03
2024-05-09T02:48:14.975Z,59.38
2024-05-09T02:50:44.913Z,50.83
2024-05-09T02:53:12.047Z,44.35
2024-05-09T02:55:42.319Z,41.78
2024-05-09T02:58:09.258Z,42.78
2024-05-09T03:00:41.412Z,39.25
2024-05-09T03:03:14.202Z,46.08
2024-05-09T03:05:45.239Z,50.60
2024-05-09T03:08:12.428Z,50.45
2024-05-09T03:10:41.817Z,39.13
2024-05-09T03:13:09.082Z,42.47
2024-05-09T03:15:38.633Z,43.00
2024-05-09T03:18:06.085Z,47.55
2024-05-09T03:20:39.027Z,43.95
2024-05-09T03:23:07.843Z,50.20
2024-05-09T03:25:37.983Z,40.30
2024-05-09T03:28:04.965Z,46.35
2024-05-09T03:30:40.688Z,40.53
2024-05-09T03:33:13.661Z,45.60
2024-05-09T03:35:44.083Z,48.83
2024-05-09T03:38:13.424Z,45.92
2024-05-09T03:40:46.864Z,45.78
2024-05-09T03:43:16.447Z,42.30
2024-05-09T03:45:45.740Z,40.67
2024-05-09T03:48:13.004Z,42.75
2024-05-09T03:50:42.847Z,43.63
2024-05-09T03:53:15.348Z,47.13
2024-05-09T03:55:42.113Z,43.70
2024-05-09T03:58:14.174Z,41.05
2024-05-09T04:00:41.983Z,40.78
2024-05-09T04:03:12.807Z,47.38
2024-05-09T04:05:41.597Z,40.00
2024-05-09T04:08:11.922Z,36.55
2024-05-09T04:10:41.359Z,44.50
2024-05-09T04:13:10.856Z,39.28
2024-05-09T04:15:37.501Z,40.67
2024-05-09T04:18:07.142Z,43.38
2024-05-09T04:20:38.773Z,41.75
2024-05-09T04:23:10.556Z,43.53
2024-05-09T04:25:37.662Z,41.75
2024-05-09T04:28:09.990Z,48.95
2024-05-09T04:30:39.644Z,38.17
2024-05-09T04:33:12.762Z,39.00
2024-05-09T04:35:41.912Z,40.63
2024-05-09T04:38:11.605Z,38.45
2024-05-09T04:40:38.513Z,42.00
2024-05-09T04:43:17.087Z,35.93
2024-05-09T04:45:43.762Z,39.92
2024-05-09T04:48:13.289Z,39.15
2024-05-09T04:50:40.296Z,39.67
2024-05-09T04:53:11.282Z,40.23
2024-05-09T04:55:38.963Z,42.78
2024-05-09T04:58:12.382Z,40.20
2024-05-09T05:00:40.508Z,40.55
2024-05-09T05:03:13.843Z,40.38
2024-05-09T05:05:43.287Z,41.40
2024-05-09T05:08:14.166Z,42.45
2024-05-09T05:10:41.133Z,42.90
2024-05-09T05:13:20.954Z,40.65
2024-05-09T05:15:53.116Z,36.58
2024-05-09T05:18:20.195Z,45.38
2024-05-09T05:20:49.697Z,38.95
2024-05-09T05:23:19.020Z,38.95
2024-05-09T05:25:50.100Z,39.30
2024-05-09T05:28:19.429Z,40.30
2024-05-09T05:30:48.799Z,39.13
2024-05-09T05:33:19.302Z,39.88
2024-05-09T05:35:46.445Z,44.28
2024-05-09T05:38:15.756Z,42.92
2024-05-09T05:40:42.438Z,40.65
2024-05-09T05:43:12.393Z,52.90
2024-05-09T05:45:41.641Z,43.58
2024-05-09T05:48:11.230Z,46.75
2024-05-09T05:50:38.754Z,43.80
2024-05-09T05:53:09.261Z,45.58
2024-05-09T05:55:36.570Z,43.17
2024-05-09T05:58:06.024Z,50.45
2024-05-09T06:00:38.922Z,62.20
2024-05-09T06:03:12.826Z,55.22
2024-05-09T06:05:40.876Z,52.72
2024-05-09T06:08:10.484Z,56.25
2024-05-09T06:10:39.918Z,45.05
2024-05-09T06:13:10.949Z,56.25
2024-05-09T06:15:37.955Z,60.40
2024-05-09T06:18:07.818Z,47.15
2024-05-09T06:20:39.492Z,48.47
2024-05-09T06:23:09.717Z,51.17
2024-05-09T06:25:37.113Z,55.10
2024-05-09T06:28:06.792Z,55.65
2024-05-09T06:30:39.999Z,51.72
2024-05-09T06:33:13.793Z,54.03
2024-05-09T06:35:46.245Z,45.35
2024-05-09T06:38:15.762Z,46.17
2024-05-09T06:40:43.937Z,47.05
2024-05-09T06:43:14.780Z,50.90
2024-05-09T06:45:42.651Z,48.42
2024-05-09T06:48:12.115Z,45.47
2024-05-09T06:50:40.006Z,48.05
2024-05-09T06:53:12.471Z,49.47
2024-05-09T06:55:41.652Z,52.40
2024-05-09T06:58:09.022Z,43.83
2024-05-09T07:00:40.647Z,45.28
2024-05-09T07:03:08.789Z,45.40
2024-05-09T07:05:38.326Z,52.17
2024-05-09T07:08:06.070Z,40.13
2024-05-09T07:10:38.545Z,44.53
2024-05-09T07:13:08.076Z,39.72
2024-05-09T07:15:37.315Z,43.80
2024-05-09T07:18:08.091Z,39.88
2024-05-09T07:20:37.491Z,39.83
2024-05-09T07:23:04.504Z,40.05
2024-05-09T07:25:33.754Z,40.88
2024-05-09T07:28:03.054Z,41.45
2024-05-09T07:30:34.467Z,37.95
2024-05-09T07:33:02.634Z,40.90
2024-05-09T07:35:32.644Z,39.13
2024-05-09T07:37:59.507Z,37.83
2024-05-09T07:40:35.166Z,35.35
2024-05-09T07:43:06.685Z,36.03
2024-05-09T07:53:36.723Z,38.95
2024-05-09T07:55:58.414Z,37.57
2024-05-09T07:58:28.042Z,38.33
2024-05-09T08:00:57.519Z,44.35
2024-05-09T08:03:24.373Z,34.25
2024-05-09T08:05:54.350Z,32.47
2024-05-09T08:08:20.982Z,32.55
2024-05-09T08:10:50.227Z,37.42
2024-05-09T08:13:16.900Z,35.03
2024-05-09T08:15:48.813Z,37.63
2024-05-09T08:18:15.810Z,33.40
2024-05-09T08:20:45.383Z,36.97
2024-05-09T08:23:11.946Z,33.42
2024-05-09T08:25:43.703Z,39.00
2024-05-09T08:28:10.717Z,35.90
2024-05-09T08:30:40.198Z,32.13
2024-05-09T08:33:09.542Z,34.30
2024-05-09T08:35:40.019Z,42.42
2024-05-09T08:38:07.305Z,34.45
2024-05-09T08:40:38.091Z,31.45
2024-05-09T08:43:06.995Z,28.02
2024-05-09T08:45:38.370Z,33.20
2024-05-09T08:48:07.967Z,27.95
2024-05-09T08:50:42.476Z,35.72
2024-05-09T08:53:09.538Z,32.60
2024-05-09T08:55:42.053Z,34.70
2024-05-09T08:58:12.546Z,29.98
2024-05-09T09:00:42.866Z,38.60
2024-05-09T09:03:11.535Z,25.60
2024-05-09T09:05:44.766Z,23.60
2024-05-09T09:08:11.574Z,27.33
2024-05-09T09:10:41.695Z,23.48
2024-05-09T09:13:11.054Z,25.55
2024-05-09T09:15:49.323Z,31.45
2024-05-09T09:18:16.598Z,21.60
2024-05-09T09:20:48.847Z,22.25
2024-05-09T09:23:15.570Z,24.23
2024-05-09T09:25:44.995Z,17.67
2024-05-09T09:28:12.389Z,15.07
2024-05-09T09:30:42.035Z,17.75
2024-05-09T09:33:09.375Z,19.73
2024-05-09T09:35:38.793Z,16.02
2024-05-09T09:38:11.230Z,19.65
2024-05-09T09:40:44.865Z,22.33
2024-05-09T09:43:21.488Z,16.38
2024-05-09T09:45:50.254Z,20.52
2024-05-09T09:48:19.575Z,16.80
2024-05-09T09:50:47.099Z,21.58
2024-05-09T09:53:19.208Z,16.77
2024-05-09T09:55:46.196Z,19.42
2024-05-09T09:58:16.878Z,15.57
2024-05-09T10:00:43.935Z,15.55
2024-05-09T10:03:13.368Z,23.67
2024-05-09T10:05:42.942Z,21.33
2024-05-09T10:08:14.701Z,19.23
2024-05-09T10:10:46.322Z,15.75
2024-05-09T10:13:15.958Z,23.45
2024-05-09T10:15:45.167Z,24.02
2024-05-09T10:18:14.828Z,22.83
2024-05-09T10:20:42.196Z,21.70
2024-05-09T10:23:30.166Z,20.23
2024-05-09T10:26:00.839Z,15.73
2024-05-09T10:28:30.250Z,17.13
2024-05-09T10:31:02.115Z,15.65
2024-05-09T10:33:38.645Z,20.80
2024-05-09T10:36:10.558Z,19.35
2024-05-09T10:38:39.720Z,16.13
2024-05-09T10:41:09.070Z,15.95
2024-05-09T10:43:41.072Z,18.75
2024-05-09T10:46:08.129Z,14.27
2024-05-09T10:48:38.673Z,22.20
2024-05-09T10:51:05.664Z,18.08
2024-05-09T10:53:34.849Z,19.80
2024-05-09T10:56:01.860Z,15.43
2024-05-09T10:58:33.630Z,14.75
2024-05-09T11:01:02.352Z,14.18
2024-05-09T11:03:33.819Z,14.00
2024-05-09T11:06:00.614Z,14.35
2024-05-09T11:08:30.144Z,16.00
2024-05-09T11:10:56.827Z,23.48
2024-05-09T11:13:29.373Z,12.52
2024-05-09T11:15:58.790Z,15.10
2024-05-09T11:18:31.876Z,12.85
2024-05-09T11:21:01.584Z,18.70
2024-05-09T11:23:31.412Z,12.30
2024-05-09T11:25:58.730Z,14.45
2024-05-09T11:28:29.121Z,17.92
2024-05-09T11:31:07.220Z,15.15
2024-05-09T11:33:39.231Z,15.50
2024-05-09T11:36:06.475Z,13.27
2024-05-09T11:38:35.699Z,18.38
2024-05-09T11:41:02.331Z,14.32
2024-05-09T11:43:31.687Z,17.02
2024-05-09T11:45:58.572Z,17.08
2024-05-09T11:48:30.902Z,15.35
2024-05-09T11:50:57.752Z,12.48
2024-05-09T11:53:29.576Z,15.57
2024-05-09T11:55:56.180Z,12.18
2024-05-09T11:58:25.385Z,13.90
2024-05-09T12:00:52.164Z,12.20
2024-05-09T12:03:21.541Z,17.30
2024-05-09T12:05:50.895Z,13.60
2024-05-09T12:08:20.145Z,13.77
2024-05-09T12:10:46.956Z,13.85
2024-05-09T12:13:16.559Z,11.13
2024-05-09T12:15:43.381Z,7.85
2024-05-09T12:18:12.635Z,8.98
2024-05-09T12:20:40.244Z,17.77
2024-05-09T12:23:12.238Z,14.02
2024-05-09T12:25:39.613Z,20.25
2024-05-09T12:28:09.687Z,9.10
2024-05-09T12:30:40.002Z,11.35
2024-05-09T12:33:11.964Z,12.52
2024-05-09T12:35:39.776Z,9.80
2024-05-09T12:38:08.961Z,14.35
2024-05-09T12:40:39.362Z,8.73
2024-05-09T12:43:10.278Z,8.32
2024-05-09T12:45:38.202Z,11.80
2024-05-09T12:50:38.625Z,8.18
2024-05-09T12:55:43.720Z,12.15
2024-05-09T12:58:21.716Z,7.82
2024-05-09T13:00:48.497Z,15.68
2024-05-09T13:03:17.797Z,9.50
2024-05-09T13:05:45.323Z,10.43
2024-05-09T13:08:15.451Z,11.82
2024-05-09T13:10:42.467Z,9.95
2024-05-09T13:13:11.854Z,12.18
2024-05-09T13:15:41.242Z,8.90
2024-05-09T13:18:11.594Z,11.55
2024-05-09T13:20:38.415Z,7.85
2024-05-09T13:23:08.827Z,8.73
2024-05-09T13:25:35.829Z,16.15
2024-05-09T13:30:39.244Z,9.40
2024-05-09T13:33:14.350Z,10.55
2024-05-09T13:35:45.656Z,13.90
2024-05-09T13:38:19.184Z,12.82
2024-05-09T13:40:46.200Z,8.65
2024-05-09T13:43:15.732Z,8.45
2024-05-09T13:45:42.619Z,10.07
2024-05-09T13:48:14.665Z,12.75
2024-05-09T13:50:41.537Z,13.18
2024-05-09T13:53:10.818Z,12.75
2024-05-09T13:55:38.080Z,10.77
2024-05-09T13:58:08.134Z,13.63
2024-05-09T14:00:44.851Z,14.13
2024-05-09T14:03:21.303Z,10.95
2024-05-09T14:05:49.349Z,10.75
2024-05-09T14:08:19.942Z,8.82
2024-05-09T14:10:47.390Z,7.65
2024-05-09T14:13:17.292Z,8.82
2024-05-09T14:15:44.137Z,9.48
2024-05-09T14:18:14.384Z,11.70
2024-05-09T14:20:44.048Z,14.75
2024-05-09T14:23:13.267Z,9.32
2024-05-09T14:25:42.763Z,10.95
2024-05-09T14:28:13.699Z,9.68
2024-05-09T14:30:40.665Z,10.00
2024-05-09T14:33:10.271Z,12.00
2024-05-09T14:35:37.634Z,15.48
2024-05-09T14:40:41.970Z,12.20
2024-05-09T14:43:13.885Z,15.40
2024-05-09T14:45:41.179Z,14.27
2024-05-09T14:48:10.958Z,8.93
2024-05-09T14:50:39.607Z,12.65
2024-05-09T14:53:10.578Z,18.63
2024-05-09T14:55:41.519Z,10.05
2024-05-09T14:58:13.098Z,9.07
2024-05-09T15:00:44.741Z,10.50
2024-05-09T15:03:17.827Z,12.40
2024-05-09T15:05:45.068Z,8.93
2024-05-09T15:08:14.412Z,12.30
2024-05-09T15:10:43.874Z,10.05
2024-05-09T15:13:15.579Z,11.15
2024-05-09T15:15:43.257Z,11.68
2024-05-09T15:18:12.589Z,11.85
2024-05-09T15:20:40.698Z,20.63
2024-05-09T15:23:10.100Z,9.70
2024-05-09T15:25:37.143Z,9.70
2024-05-09T15:28:09.834Z,11.07
2024-05-09T15:30:37.082Z,6.22
2024-05-09T15:33:07.831Z,10.77
2024-05-09T15:35:35.009Z,17.67
2024-05-09T15:38:05.097Z,17.60
2024-05-09T15:40:38.708Z,11.85
2024-05-09T15:43:12.735Z,8.13
2024-05-09T15:45:40.104Z,9.50
2024-05-09T15:48:11.368Z,10.40
2024-05-09T15:50:41.107Z,15.68
2024-05-09T15:53:12.574Z,13.00
2024-05-09T15:55:39.764Z,11.88
2024-05-09T15:58:09.104Z,10.32
2024-05-09T16:00:41.738Z,10.68
2024-05-09T16:03:14.148Z,17.83
2024-05-09T16:05:42.905Z,8.90
2024-05-09T16:08:12.338Z,14.75
2024-05-09T16:10:43.193Z,12.10
2024-05-09T16:13:13.799Z,8.73
2024-05-09T16:15:43.413Z,12.40
2024-05-09T16:18:12.873Z,10.80
2024-05-09T16:20:41.769Z,17.90
2024-05-09T16:23:12.940Z,21.02
2024-05-09T16:25:39.956Z,17.10
2024-05-09T16:28:10.843Z,19.35
2024-05-09T16:30:37.901Z,21.73
2024-05-09T16:33:10.822Z,11.80
2024-05-09T16:35:37.880Z,13.23
2024-05-09T16:38:07.690Z,43.40
2024-05-09T16:40:38.953Z,49.95
2024-05-09T16:43:10.876Z,17.67
2024-05-09T16:45:39.284Z,16.23
2024-05-09T16:48:12.197Z,23.35
2024-05-09T16:50:39.093Z,17.30
2024-05-09T16:53:08.432Z,18.27
2024-05-09T16:55:35.577Z,18.25
2024-05-09T16:58:06.527Z,20.83
2024-05-09T17:00:40.490Z,13.13
2024-05-09T17:03:16.128Z,9.93
2024-05-09T17:05:43.501Z,13.98
2024-05-09T17:08:13.457Z,16.02
2024-05-09T17:10:40.111Z,18.77
2024-05-09T17:13:09.957Z,21.33
2024-05-09T17:15:39.342Z,19.83
2024-05-09T17:18:06.694Z,16.90
2024-05-09T17:20:39.065Z,10.95
2024-05-09T17:23:12.354Z,11.32
2024-05-09T17:25:42.052Z,10.65
2024-05-09T17:28:09.327Z,10.80
2024-05-09T17:30:40.927Z,12.82
2024-05-09T17:33:10.021Z,9.80
2024-05-09T17:35:45.512Z,13.23
2024-05-09T17:38:12.265Z,14.55
2024-05-09T17:40:41.621Z,10.50
2024-05-09T17:43:09.996Z,19.55
2024-05-09T17:45:41.085Z,12.52
2024-05-09T17:48:09.535Z,13.50
2024-05-09T17:50:39.426Z,16.50
2024-05-09T17:53:09.036Z,12.70
2024-05-09T17:55:38.338Z,12.43
2024-05-09T17:58:05.713Z,13.73
2024-05-09T18:00:39.597Z,11.77
2024-05-09T18:03:10.596Z,14.35
2024-05-09T18:05:40.202Z,13.10
2024-05-09T18:08:09.806Z,15.68
2024-05-09T18:10:40.415Z,16.23
2024-05-09T18:13:07.569Z,10.45
2024-05-09T18:15:36.994Z,12.45
2024-05-09T18:18:04.597Z,14.63
2024-05-09T18:20:41.912Z,10.85
2024-05-09T18:23:16.140Z,12.77
2024-05-09T18:25:47.536Z,10.90
2024-05-09T18:28:14.782Z,19.15
2024-05-09T18:30:44.249Z,12.17
2024-05-09T18:33:11.764Z,9.10
2024-05-09T18:35:41.466Z,10.25
2024-05-09T18:38:08.643Z,16.85
2024-05-09T18:40:42.819Z,11.88
2024-05-09T18:43:10.672Z,13.57
2024-05-09T18:45:40.221Z,13.43
2024-05-09T18:48:08.245Z,12.80
2024-05-09T18:50:40.408Z,11.98
2024-05-09T18:53:12.250Z,13.15
2024-05-09T18:55:42.614Z,14.60
2024-05-09T18:58:12.072Z,9.23
2024-05-09T19:00:41.488Z,10.57
2024-05-09T19:03:14.510Z,9.32
2024-05-09T19:05:43.236Z,10.45
2024-05-09T19:08:14.417Z,17.25
2024-05-09T19:10:45.370Z,11.07
2024-05-09T19:13:15.296Z,10.88
2024-05-09T19:15:42.860Z,18.25
2024-05-09T19:18:14.298Z,12.63
2024-05-09T19:20:41.604Z,18.67
2024-05-09T19:23:11.482Z,10.55
2024-05-09T19:25:38.204Z,15.05
2024-05-09T19:28:10.306Z,14.30
2024-05-09T19:30:40.963Z,18.00
2024-05-09T19:33:13.299Z,9.68
2024-05-09T19:35:40.666Z,15.40
2024-05-09T19:38:09.858Z,11.80
2024-05-09T19:40:36.751Z,14.95
2024-05-09T19:43:06.917Z,12.30
2024-05-09T19:45:36.729Z,14.60
2024-05-09T19:48:06.813Z,15.80
2024-05-09T19:50:41.229Z,14.13
2024-05-09T19:53:13.287Z,10.27
2024-05-09T19:55:39.941Z,12.57
2024-05-09T19:58:09.522Z,14.93
2024-05-09T20:00:41.676Z,13.65
2024-05-09T20:03:14.080Z,14.98
2024-05-09T20:05:42.128Z,13.57
2024-05-09T20:08:11.426Z,13.48
2024-05-09T20:10:38.922Z,17.30
2024-05-09T20:13:08.972Z,14.80
2024-05-09T20:15:38.782Z,13.82
2024-05-09T20:18:08.659Z,15.35
2024-05-09T20:20:39.660Z,12.88
2024-05-09T20:23:12.162Z,10.73
2024-05-09T20:25:38.970Z,15.50
2024-05-09T20:28:08.751Z,21.35
2024-05-09T20:30:38.442Z,16.02
2024-05-09T20:33:09.494Z,13.80
2024-05-09T20:35:36.820Z,12.77
2024-05-09T20:38:06.484Z,16.80
2024-05-09T20:40:36.952Z,16.33
2024-05-09T20:43:08.598Z,15.38
2024-05-09T20:45:35.790Z,15.85
2024-05-09T20:48:08.777Z,18.65
2024-05-09T20:50:39.757Z,17.40
2024-05-09T20:53:11.984Z,15.35
2024-05-09T20:55:39.612Z,14.32
2024-05-09T20:58:09.260Z,11.80
2024-05-09T21:00:40.388Z,14.50
2024-05-09T21:03:17.043Z,15.15
2024-05-09T21:05:44.608Z,13.57
2024-05-09T21:08:13.929Z,14.70
2024-05-09T21:10:40.574Z,13.15
2024-05-09T21:13:09.934Z,14.75
2024-05-09T21:15:36.740Z,14.77
2024-05-09T21:18:06.205Z,16.40
2024-05-09T21:20:37.343Z,15.48
2024-05-09T21:23:06.624Z,21.33
2024-05-09T21:25:33.510Z,14.15
2024-05-09T21:28:02.965Z,14.10
2024-05-09T21:30:38.588Z,15.20
2024-05-09T21:33:12.984Z,13.82
2024-05-09T21:35:44.401Z,13.60
2024-05-09T21:38:14.649Z,18.10
2024-05-09T21:40:41.858Z,14.90
2024-05-09T21:43:11.180Z,17.10
2024-05-09T21:45:38.022Z,14.38
2024-05-09T21:48:08.069Z,15.65
2024-05-09T21:50:40.421Z,16.10
2024-05-09T21:53:14.048Z,20.77
2024-05-09T21:55:40.939Z,15.80
2024-05-09T21:58:10.516Z,18.77
2024-05-09T22:00:39.350Z,18.60
2024-05-09T22:03:10.502Z,20.23
2024-05-09T22:05:39.048Z,18.85
2024-05-09T22:08:08.935Z,19.52
2024-05-09T22:10:38.210Z,18.10
2024-05-09T22:13:08.003Z,21.35
2024-05-09T22:15:35.672Z,19.20
2024-05-09T22:18:06.130Z,22.17
2024-05-09T22:20:37.767Z,18.77
2024-05-09T22:23:09.088Z,17.83
2024-05-09T22:25:39.140Z,21.25
2024-05-09T22:28:08.752Z,20.35
2024-05-09T22:30:38.775Z,23.27
2024-05-09T22:33:11.018Z,19.15
2024-05-09T22:35:38.747Z,23.63
2024-05-09T22:38:08.422Z,19.98
2024-05-09T22:40:45.914Z,19.45
2024-05-09T22:43:24.294Z,26.10
2024-05-09T22:45:52.221Z,21.73
2024-05-09T22:48:21.821Z,19.47
2024-05-09T22:50:48.717Z,20.27
2024-05-09T22:53:17.943Z,25.90
2024-05-09T22:55:44.543Z,19.90
2024-05-09T22:58:13.786Z,21.35
2024-05-09T23:00:43.197Z,21.70
2024-05-09T23:03:14.066Z,22.02
2024-05-09T23:05:40.742Z,19.77
2024-05-09T23:08:10.671Z,20.42
2024-05-09T23:10:38.243Z,20.60
2024-05-09T23:15:35.811Z,26.15
2024-05-09T23:18:08.377Z,19.25
2024-05-09T23:20:38.694Z,21.48
2024-05-09T23:23:10.606Z,27.42
2024-05-09T23:25:38.224Z,21.15
2024-05-09T23:28:07.805Z,24.75
2024-05-09T23:30:38.596Z,21.42
2024-05-09T23:33:14.313Z,21.38
2024-05-09T23:35:41.772Z,26.42
2024-05-09T23:38:11.020Z,22.70
2024-05-09T23:40:40.351Z,22.48
2024-05-09T23:43:11.839Z,23.08
2024-05-09T23:45:39.273Z,21.23
2024-05-09T23:48:09.024Z,22.92
2024-05-09T23:50:39.984Z,23.90
2024-05-09T23:53:10.772Z,22.08
2024-05-09T23:55:38.079Z,26.60
2024-05-09T23:58:07.850Z,27.13
